createdAt,value
2019-01-04T00:00:34.433Z,3.80
2019-01-04T00:02:43.520Z,3.80
2019-01-04T00:04:49.258Z,3.80
2019-01-04T00:06:54.844Z,3.80
2019-01-04T00:09:00.535Z,3.70
2019-01-04T00:11:06.576Z,3.80
2019-01-04T00:13:12.385Z,3.70
2019-01-04T00:15:19.169Z,3.70
2019-01-04T00:17:28.644Z,3.70
2019-01-04T00:19:53.433Z,3.60
2019-01-04T00:22:01.192Z,3.60
2019-01-04T00:24:07.006Z,3.60
2019-01-04T00:28:56.450Z,3.60
2019-01-04T00:31:21.548Z,3.50
2019-01-04T00:33:38.890Z,3.50
2019-01-04T00:36:03.625Z,3.50
2019-01-04T00:38:28.319Z,3.50
2019-01-04T00:40:34.106Z,3.60
2019-01-04T00:42:40.448Z,3.60
2019-01-04T00:44:47.335Z,3.70
2019-01-04T00:46:53.648Z,3.70
2019-01-04T00:49:02.017Z,3.70
2019-01-04T00:51:07.710Z,3.80
2019-01-04T00:53:32.507Z,3.80
2019-01-04T00:56:22.673Z,3.80
2019-01-04T00:58:48.822Z,3.90
2019-01-04T01:04:53.084Z,4.10
2019-01-04T01:07:56.638Z,4.10
2019-01-04T01:10:59.437Z,4.20
2019-01-04T01:14:02.199Z,4.20
2019-01-04T01:16:39.247Z,4.10
2019-01-04T01:19:42.027Z,4.10
2019-01-04T01:22:24.601Z,4.10
2019-01-04T01:25:27.728Z,4.10
2019-01-04T01:28:01.500Z,4.10
2019-01-04T01:31:04.243Z,4.10
2019-01-04T01:33:30.826Z,4.00
2019-01-04T01:39:23.283Z,4.10
2019-01-04T01:42:26.044Z,4.10
2019-01-04T01:45:29.746Z,4.20
2019-01-04T01:48:06.059Z,4.20
2019-01-04T01:50:36.697Z,4.20
2019-01-04T01:53:01.748Z,4.20
2019-01-04T01:55:45.243Z,4.20
2019-01-04T01:58:10.225Z,4.10
2019-01-04T02:00:27.585Z,4.00
2019-01-04T02:02:52.822Z,4.00
2019-01-04T02:05:10.022Z,3.90
2019-01-04T02:07:34.724Z,3.90
2019-01-04T02:09:59.411Z,3.90
2019-01-04T02:12:17.759Z,3.90
2019-01-04T02:14:42.869Z,3.90
2019-01-04T02:17:00.579Z,4.00
2019-01-04T02:19:25.529Z,4.00
2019-01-04T02:21:43.872Z,4.10
2019-01-04T02:24:09.499Z,4.00
2019-01-04T02:26:34.196Z,4.00
2019-01-04T02:28:59.247Z,3.90
2019-01-04T02:31:26.654Z,3.90
2019-01-04T02:33:33.195Z,3.80
2019-01-04T02:38:17.093Z,3.90
2019-01-04T02:40:41.732Z,3.80
2019-01-04T02:42:58.599Z,3.90
2019-01-04T02:45:16.963Z,3.90
2019-01-04T02:47:34.562Z,3.90
2019-01-04T02:49:59.458Z,4.00
2019-01-04T02:52:24.191Z,4.00
2019-01-04T02:54:41.853Z,4.00
2019-01-04T02:59:34.412Z,4.00
2019-01-04T03:01:59.624Z,4.00
2019-01-04T03:04:05.671Z,4.00
2019-01-04T03:06:30.437Z,4.00
2019-01-04T03:08:48.334Z,3.90
2019-01-04T03:11:13.209Z,3.90
2019-01-04T03:13:30.759Z,3.80
2019-01-04T03:15:55.395Z,3.80
2019-01-04T03:18:14.489Z,3.80
2019-01-04T03:20:20.280Z,3.80
2019-01-04T03:22:28.731Z,3.80
2019-01-04T03:24:53.449Z,3.80
2019-01-04T03:27:11.017Z,3.80
2019-01-04T03:30:01.365Z,3.80
2019-01-04T03:31:58.342Z,3.80
2019-01-04T03:34:37.139Z,3.80
2019-01-04T03:36:42.248Z,3.90
2019-01-04T03:39:07.119Z,3.90
2019-01-04T03:41:12.772Z,4.10
2019-01-04T03:43:37.518Z,4.00
2019-01-04T03:45:54.432Z,4.00
2019-01-04T03:48:19.133Z,3.90
2019-01-04T03:50:24.782Z,4.00
2019-01-04T03:52:30.914Z,3.90
2019-01-04T03:54:55.616Z,3.70
2019-01-04T03:57:20.325Z,3.70
2019-01-04T03:59:45.075Z,3.70
2019-01-04T04:04:40.029Z,3.80
2019-01-04T04:06:57.364Z,3.70
2019-01-04T04:09:22.146Z,3.80
2019-01-04T04:11:39.319Z,4.00
2019-01-04T04:13:56.902Z,3.90
2019-01-04T04:16:42.279Z,4.00
2019-01-04T04:19:02.311Z,4.00
2019-01-04T04:21:19.976Z,3.90
2019-01-04T04:23:44.709Z,3.90
2019-01-04T04:26:02.823Z,3.90
2019-01-04T04:28:27.675Z,3.90
2019-01-04T04:30:45.257Z,3.90
2019-01-04T04:33:09.946Z,3.80
2019-01-04T04:35:27.816Z,3.90
2019-01-04T04:37:52.528Z,3.90
2019-01-04T04:40:17.610Z,3.90
2019-01-04T04:42:42.294Z,3.90
2019-01-04T04:44:49.105Z,3.90
2019-01-04T04:47:07.527Z,3.80
2019-01-04T04:49:32.308Z,3.80
2019-01-04T04:52:11.622Z,3.80
2019-01-04T04:54:17.835Z,3.80
2019-01-04T04:56:42.602Z,3.80
2019-01-04T04:58:59.574Z,3.80
2019-01-04T05:01:38.738Z,3.80
2019-01-04T05:03:44.401Z,3.80
2019-01-04T05:06:10.822Z,3.70
2019-01-04T05:08:35.556Z,3.70
2019-01-04T05:11:00.388Z,3.70
2019-01-04T05:13:25.482Z,3.70
2019-01-04T05:16:04.679Z,3.60
2019-01-04T05:18:09.511Z,3.70
2019-01-04T05:20:34.213Z,3.70
2019-01-04T05:22:51.359Z,3.70
2019-01-04T05:25:35.015Z,3.70
2019-01-04T05:27:52.553Z,3.70
2019-01-04T05:30:17.221Z,3.80
2019-01-04T05:33:02.393Z,3.80
2019-01-04T05:35:08.545Z,3.90
2019-01-04T05:37:14.283Z,3.80
2019-01-04T05:39:19.957Z,3.80
2019-01-04T05:44:28.144Z,4.00
2019-01-04T05:46:53.536Z,4.00
2019-01-04T05:49:10.562Z,3.90
2019-01-04T05:51:35.447Z,3.90
2019-01-04T05:53:53.062Z,4.00
2019-01-04T05:56:17.766Z,3.90
2019-01-04T05:58:42.917Z,3.90
2019-01-04T06:01:00.828Z,3.90
2019-01-04T06:03:44.335Z,3.90
2019-01-04T06:06:01.243Z,3.80
2019-01-04T06:08:26.287Z,3.90
2019-01-04T06:10:35.071Z,3.90
2019-01-04T06:12:41.050Z,4.00
2019-01-04T06:15:09.036Z,4.00
2019-01-04T06:17:33.754Z,3.90
2019-01-04T06:19:39.655Z,4.00
2019-01-04T06:22:04.880Z,4.10
2019-01-04T06:24:23.296Z,4.10
2019-01-04T06:29:32.619Z,4.10
2019-01-04T06:31:57.257Z,4.20
2019-01-04T06:34:02.921Z,4.20
2019-01-04T06:36:30.078Z,4.20
2019-01-04T06:38:50.977Z,4.20
2019-01-04T06:41:15.787Z,4.20
2019-01-04T06:43:33.409Z,4.40
2019-01-04T06:45:58.824Z,4.40
2019-01-04T06:48:15.997Z,4.40
2019-01-04T06:52:43.200Z,4.30
2019-01-04T06:55:30.609Z,4.20
2019-01-04T06:57:36.606Z,4.30
2019-01-04T07:00:03.101Z,4.30
2019-01-04T07:02:27.784Z,4.30
2019-01-04T07:04:33.751Z,4.20
2019-01-04T07:11:23.714Z,4.20
2019-01-04T07:13:48.426Z,4.20
2019-01-04T07:16:05.301Z,4.30
2019-01-04T07:18:30.126Z,4.30
2019-01-04T07:20:57.880Z,4.30
2019-01-04T07:25:53.170Z,4.40
2019-01-04T07:28:01.967Z,4.40
2019-01-04T07:30:08.160Z,4.30
2019-01-04T07:32:33.045Z,4.30
2019-01-04T07:34:38.810Z,4.40
2019-01-04T07:36:44.828Z,4.30
2019-01-04T07:39:28.507Z,4.30
2019-01-04T07:41:53.554Z,4.30
2019-01-04T07:44:10.842Z,4.30
2019-01-04T07:46:38.974Z,4.30
2019-01-04T07:49:04.235Z,4.30
2019-01-04T07:51:30.928Z,4.30
2019-01-04T07:53:48.956Z,4.20
2019-01-04T07:56:14.418Z,4.20
2019-01-04T07:58:41.155Z,4.20
2019-01-04T08:01:06.215Z,4.00
2019-01-04T08:03:30.945Z,4.10
2019-01-04T08:06:00.975Z,4.10
2019-01-04T08:08:07.526Z,4.00
2019-01-04T08:10:16.021Z,4.00
2019-01-04T08:12:22.836Z,4.00
2019-01-04T08:14:28.641Z,4.00
2019-01-04T08:16:34.354Z,4.00
2019-01-04T08:19:17.950Z,4.10
2019-01-04T08:21:23.638Z,4.10
2019-01-04T08:23:48.389Z,4.10
2019-01-04T08:25:54.337Z,4.20
2019-01-04T08:28:06.346Z,4.20
2019-01-04T08:32:42.648Z,4.20
2019-01-04T08:34:48.796Z,4.30
2019-01-04T08:36:55.596Z,4.20
2019-01-04T08:39:20.593Z,4.30
2019-01-04T08:41:26.397Z,4.20
2019-01-04T08:43:35.061Z,4.20
2019-01-04T08:45:45.579Z,4.20
2019-01-04T08:48:10.977Z,4.20
2019-01-04T08:50:58.117Z,4.20
2019-01-04T08:53:04.631Z,4.20
2019-01-04T08:55:31.824Z,4.20
2019-01-04T08:57:58.876Z,4.20
2019-01-04T09:00:25.947Z,4.20
2019-01-04T09:02:31.692Z,4.30
2019-01-04T09:05:15.472Z,4.30
2019-01-04T09:08:00.553Z,4.30
2019-01-04T09:10:25.704Z,4.40
2019-01-04T09:12:43.057Z,4.50
2019-01-04T09:18:22.346Z,4.50
2019-01-04T09:20:27.982Z,4.40
2019-01-04T09:22:53.039Z,4.40
2019-01-04T09:24:59.498Z,4.50
2019-01-04T09:30:03.109Z,4.50
2019-01-04T09:32:27.837Z,4.50
2019-01-04T09:34:45.608Z,4.50
2019-01-04T09:39:46.534Z,4.60
2019-01-04T09:42:08.322Z,4.50
2019-01-04T09:44:14.158Z,4.60
2019-01-04T09:46:38.967Z,4.60
2019-01-04T09:48:56.217Z,4.60
2019-01-04T09:51:21.184Z,4.60
2019-01-04T09:53:27.335Z,4.50
2019-01-04T09:55:33.604Z,4.60
2019-01-04T09:57:58.407Z,4.60
2019-01-04T10:00:08.447Z,4.70
2019-01-04T10:02:14.404Z,4.70
2019-01-04T10:04:20.086Z,4.70
2019-01-04T10:06:44.822Z,4.70
2019-01-04T10:09:03.106Z,4.60
2019-01-04T10:11:08.811Z,4.80
2019-01-04T10:13:14.599Z,4.80
2019-01-04T10:15:39.858Z,4.70
2019-01-04T10:17:45.802Z,4.70
2019-01-04T10:19:51.721Z,4.70
2019-01-04T10:21:57.851Z,4.70
2019-01-04T10:24:22.794Z,4.70
2019-01-04T10:27:06.537Z,4.70
2019-01-04T10:29:25.195Z,4.80
2019-01-04T10:31:30.865Z,4.80
2019-01-04T10:33:36.867Z,4.80
2019-01-04T10:35:42.609Z,4.90
2019-01-04T10:37:49.158Z,5.00
2019-01-04T10:39:55.249Z,4.90
2019-01-04T10:42:01.294Z,4.90
2019-01-04T10:44:26.246Z,5.00
2019-01-04T10:46:51.131Z,5.00
2019-01-04T10:48:58.628Z,5.00
2019-01-04T10:51:05.316Z,5.00
2019-01-04T10:53:11.695Z,5.00
2019-01-04T10:55:20.797Z,5.00
2019-01-04T10:57:39.404Z,5.20
2019-01-04T10:59:45.784Z,5.10
2019-01-04T11:01:53.924Z,5.20
2019-01-04T11:04:19.521Z,5.00
2019-01-04T11:06:47.003Z,5.00
2019-01-04T11:09:06.906Z,5.00
2019-01-04T11:11:12.785Z,5.00
2019-01-04T11:13:39.268Z,5.00
2019-01-04T11:15:56.935Z,5.00
2019-01-04T11:18:21.988Z,5.00
2019-01-04T11:20:48.518Z,4.90
2019-01-04T11:23:53.323Z,4.90
2019-01-04T11:26:40.450Z,4.90
2019-01-04T11:29:17.090Z,4.80
2019-01-04T11:32:13.088Z,4.80
2019-01-04T11:35:11.022Z,4.90
2019-01-04T11:37:47.196Z,4.90
2019-01-04T11:40:55.898Z,4.80
2019-01-04T11:44:07.794Z,4.80
2019-01-04T11:46:58.009Z,4.80
2019-01-04T11:49:25.799Z,4.80
2019-01-04T11:52:08.302Z,4.90
2019-01-04T11:54:35.526Z,4.90
2019-01-04T11:56:54.393Z,4.90
2019-01-04T11:59:01.046Z,4.80
2019-01-04T12:01:07.681Z,4.90
2019-01-04T12:03:13.429Z,4.80
2019-01-04T12:05:19.267Z,4.80
2019-01-04T12:07:25.774Z,4.90
2019-01-04T12:09:31.465Z,4.90
2019-01-04T12:11:37.509Z,4.90
2019-01-04T12:13:45.538Z,4.90
2019-01-04T12:16:10.921Z,4.90
2019-01-04T12:18:30.974Z,4.90
2019-01-04T12:20:37.089Z,4.90
2019-01-04T12:22:47.514Z,4.90
2019-01-04T12:25:12.959Z,4.90
2019-01-04T12:27:21.181Z,4.80
2019-01-04T12:29:29.012Z,4.80
2019-01-04T12:31:35.524Z,4.90
2019-01-04T12:33:41.190Z,5.00
2019-01-04T12:35:47.226Z,4.90
2019-01-04T12:38:11.968Z,4.90
2019-01-04T12:40:17.751Z,4.80
2019-01-04T12:42:23.518Z,4.80
2019-01-04T12:44:30.901Z,4.80
2019-01-04T12:46:38.655Z,4.70
2019-01-04T12:49:17.410Z,4.80
2019-01-04T12:51:24.324Z,4.70
2019-01-04T12:53:32.271Z,4.80
2019-01-04T12:55:38.580Z,4.70
2019-01-04T12:57:44.186Z,4.70
2019-01-04T12:59:52.063Z,4.70
2019-01-04T13:01:58.841Z,4.70
2019-01-04T13:04:05.489Z,4.80
2019-01-04T13:06:11.337Z,4.90
2019-01-04T13:08:36.398Z,4.90
2019-01-04T13:10:42.270Z,4.80
2019-01-04T13:13:11.326Z,4.80
2019-01-04T13:15:17.302Z,4.80
2019-01-04T13:17:23.455Z,4.80
2019-01-04T13:19:29.174Z,4.80
2019-01-04T13:21:37.759Z,4.70
2019-01-04T13:23:43.985Z,4.80
2019-01-04T13:25:50.386Z,4.80
2019-01-04T13:27:56.401Z,4.80
2019-01-04T13:30:02.566Z,4.80
2019-01-04T13:32:10.897Z,4.70
2019-01-04T13:34:16.778Z,4.70
2019-01-04T13:36:22.539Z,4.70
2019-01-04T13:38:28.278Z,4.70
2019-01-04T13:40:33.914Z,4.80
2019-01-04T13:42:40.858Z,4.60
2019-01-04T13:44:48.494Z,4.60
2019-01-04T13:46:56.312Z,4.60
2019-01-04T13:49:06.514Z,4.60
2019-01-04T13:51:12.341Z,4.60
2019-01-04T13:53:19.182Z,4.60
2019-01-04T13:55:25.143Z,4.70
2019-01-04T13:57:33.105Z,4.70
2019-01-04T13:59:58.035Z,4.60
2019-01-04T14:02:07.669Z,4.60
2019-01-04T14:04:13.513Z,4.60
2019-01-04T14:06:19.957Z,4.60
2019-01-04T14:08:44.648Z,4.60
2019-01-04T14:10:50.416Z,4.60
2019-01-04T14:12:56.064Z,4.60
2019-01-04T14:15:01.720Z,4.60
2019-01-04T14:17:07.775Z,4.60
2019-01-04T14:19:33.185Z,4.60
2019-01-04T14:21:50.601Z,4.60
2019-01-04T14:23:56.340Z,4.60
2019-01-04T14:26:21.008Z,4.60
2019-01-04T14:29:05.749Z,4.60
2019-01-04T14:31:11.471Z,4.60
2019-01-04T14:33:17.239Z,4.60
2019-01-04T14:35:23.862Z,4.60
2019-01-04T14:37:30.021Z,4.60
2019-01-04T14:39:35.702Z,4.50
2019-01-04T14:41:42.648Z,4.60
2019-01-04T14:43:48.771Z,4.50
2019-01-04T14:45:54.776Z,4.50
2019-01-04T14:48:00.513Z,4.40
2019-01-04T14:50:08.440Z,4.40
2019-01-04T14:52:35.249Z,4.40
2019-01-04T14:54:41.751Z,4.40
2019-01-04T14:56:47.755Z,4.40
2019-01-04T14:58:53.505Z,4.40
2019-01-04T15:00:59.464Z,4.30
2019-01-04T15:03:06.516Z,4.30
2019-01-04T15:05:34.796Z,4.30
2019-01-04T15:07:41.616Z,4.30
2019-01-04T15:09:47.225Z,4.30
2019-01-04T15:11:53.974Z,4.30
2019-01-04T15:13:59.639Z,4.30
2019-01-04T15:16:05.315Z,4.20
2019-01-04T15:20:37.606Z,4.30
2019-01-04T15:22:43.629Z,4.30
2019-01-04T15:24:49.656Z,4.30
2019-01-04T15:27:14.430Z,4.30
2019-01-04T15:29:20.409Z,4.30
2019-01-04T15:31:26.151Z,4.30
2019-01-04T15:33:51.348Z,4.30
2019-01-04T15:35:57.022Z,4.30
2019-01-04T15:38:06.966Z,4.20
2019-01-04T15:40:31.702Z,4.20
2019-01-04T15:42:38.711Z,4.20
2019-01-04T15:45:03.400Z,4.20
2019-01-04T15:47:09.532Z,4.20
2019-01-04T15:49:16.301Z,4.20
2019-01-04T15:51:45.232Z,4.10
2019-01-04T15:53:52.260Z,4.20
2019-01-04T15:55:57.925Z,4.10
2019-01-04T15:58:04.053Z,4.10
2019-01-04T16:00:12.775Z,4.10
2019-01-04T16:02:18.945Z,4.00
2019-01-04T16:04:38.148Z,4.00
2019-01-04T16:06:44.005Z,4.00
2019-01-04T16:08:50.141Z,4.00
2019-01-04T16:10:55.882Z,4.00
2019-01-04T16:13:02.372Z,4.00
2019-01-04T16:15:27.421Z,4.00
2019-01-04T16:17:33.112Z,4.00
2019-01-04T16:19:59.897Z,4.00
2019-01-04T16:22:05.547Z,4.00
2019-01-04T16:24:12.818Z,4.10
2019-01-04T16:26:18.497Z,4.00
2019-01-04T16:28:27.105Z,4.00
2019-01-04T16:30:32.927Z,4.00
2019-01-04T16:32:38.640Z,3.90
2019-01-04T16:35:03.306Z,3.90
2019-01-04T16:37:48.986Z,3.90
2019-01-04T16:40:13.719Z,3.90
2019-01-04T16:42:30.766Z,3.90
2019-01-04T16:44:36.406Z,3.90
2019-01-04T16:46:45.123Z,3.90
2019-01-04T16:48:52.831Z,3.90
2019-01-04T16:50:58.494Z,3.90
2019-01-04T16:53:04.179Z,3.90
2019-01-04T16:55:11.447Z,3.90
2019-01-04T16:57:17.842Z,3.90
2019-01-04T16:59:23.527Z,3.90
2019-01-04T17:01:29.200Z,3.90
2019-01-04T17:03:34.842Z,3.90
2019-01-04T17:05:44.120Z,3.80
2019-01-04T17:07:49.750Z,3.80
2019-01-04T17:10:14.432Z,3.80
2019-01-04T17:12:20.159Z,3.80
2019-01-04T17:14:26.837Z,3.70
2019-01-04T17:16:35.311Z,3.80
2019-01-04T17:19:00.553Z,3.80
2019-01-04T17:21:07.361Z,3.80
2019-01-04T17:23:15.731Z,3.70
2019-01-04T17:25:21.738Z,3.60
2019-01-04T17:27:46.471Z,3.70
2019-01-04T17:29:52.529Z,3.70
2019-01-04T17:31:58.363Z,3.70
2019-01-04T17:34:04.200Z,3.70
2019-01-04T17:36:09.947Z,3.70
2019-01-04T17:38:34.969Z,3.70
2019-01-04T17:40:52.281Z,3.70
2019-01-04T17:43:18.491Z,3.70
2019-01-04T17:45:37.274Z,3.70
2019-01-04T17:47:32.261Z,3.60
2019-01-04T17:49:39.423Z,3.60
2019-01-04T17:51:45.129Z,3.70
2019-01-04T17:53:51.120Z,3.60
2019-01-04T17:56:15.941Z,3.70
2019-01-04T17:58:21.677Z,3.60
2019-01-04T18:00:27.313Z,3.60
2019-01-04T18:02:33.022Z,3.60
2019-01-04T18:04:59.245Z,3.60
2019-01-04T18:07:20.483Z,3.60
2019-01-04T18:09:26.129Z,3.60
2019-01-04T18:11:34.269Z,3.60
2019-01-04T18:13:39.918Z,3.60
2019-01-04T18:15:47.941Z,3.60
2019-01-04T18:18:12.623Z,3.60
2019-01-04T18:20:20.098Z,3.70
2019-01-04T18:22:27.279Z,3.60
2019-01-04T18:24:52.447Z,3.60
2019-01-04T18:27:10.157Z,3.70
2019-01-04T18:29:16.507Z,3.70
2019-01-04T18:31:23.296Z,3.70
2019-01-04T18:36:00.868Z,3.60
2019-01-04T18:38:06.864Z,3.60
2019-01-04T18:40:13.241Z,3.60
2019-01-04T18:42:37.923Z,3.70
2019-01-04T18:44:44.891Z,3.70
2019-01-04T18:46:50.514Z,3.70
2019-01-04T18:48:56.324Z,3.60
2019-01-04T18:51:21.011Z,3.60
2019-01-04T18:53:26.766Z,3.60
2019-01-04T18:55:32.511Z,3.60
2019-01-04T18:57:57.179Z,3.60
2019-01-04T19:00:02.895Z,3.60
2019-01-04T19:02:08.551Z,3.70
2019-01-04T19:06:40.503Z,3.70
2019-01-04T19:08:59.083Z,3.60
2019-01-04T19:11:05.258Z,3.60
2019-01-04T19:13:10.881Z,3.60
2019-01-04T19:15:19.715Z,3.70
2019-01-04T19:17:25.671Z,3.60
2019-01-04T19:19:31.371Z,3.70
2019-01-04T19:21:37.045Z,3.70
2019-01-04T19:23:42.656Z,3.70
2019-01-04T19:25:51.307Z,3.70
2019-01-04T19:27:56.954Z,3.70
2019-01-04T19:30:02.909Z,3.70
2019-01-04T19:32:08.551Z,3.70
2019-01-04T19:34:14.467Z,3.70
2019-01-04T19:36:44.923Z,3.70
2019-01-04T19:39:06.107Z,3.80
2019-01-04T19:41:01.386Z,3.80
2019-01-04T19:43:26.070Z,3.70
2019-01-04T19:45:31.942Z,3.70
2019-01-04T19:47:39.212Z,3.70
2019-01-04T19:49:45.108Z,3.70
2019-01-04T19:52:12.266Z,3.70
2019-01-04T19:54:18.024Z,3.70
2019-01-04T19:56:23.716Z,3.70
2019-01-04T19:58:49.550Z,3.70
2019-01-04T20:00:56.271Z,3.70
2019-01-04T20:03:02.483Z,3.70
2019-01-04T20:08:54.642Z,3.70
2019-01-04T20:12:23.194Z,3.70
2019-01-04T20:15:39.415Z,3.70
2019-01-04T20:18:09.090Z,3.80
2019-01-04T20:20:38.228Z,3.70
2019-01-04T20:23:21.818Z,3.70
2019-01-04T20:25:47.100Z,3.70
2019-01-04T20:28:11.772Z,3.70
2019-01-04T20:30:36.349Z,3.70
2019-01-04T20:33:07.505Z,3.70
2019-01-04T20:35:32.870Z,3.80
2019-01-04T20:37:58.113Z,3.80
2019-01-04T20:40:25.659Z,3.80
2019-01-04T20:42:50.126Z,3.80
2019-01-04T20:45:21.382Z,3.90
2019-01-04T20:47:47.461Z,3.90
2019-01-04T20:50:18.712Z,3.90
2019-01-04T20:52:43.974Z,3.80
2019-01-04T20:57:49.242Z,3.80
2019-01-04T21:02:54.050Z,3.80
2019-01-04T21:05:19.259Z,3.80
2019-01-04T21:07:41.567Z,3.90
2019-01-04T21:10:31.191Z,3.80
2019-01-04T21:12:54.394Z,3.80
2019-01-04T21:15:25.170Z,3.90
2019-01-04T21:17:52.053Z,4.00
2019-01-04T21:20:28.431Z,4.00
2019-01-04T21:22:53.014Z,3.90
2019-01-04T21:25:32.261Z,3.90
2019-01-04T21:27:56.845Z,3.90
2019-01-04T21:30:21.713Z,4.00
2019-01-04T21:32:46.515Z,3.90
2019-01-04T21:35:30.413Z,3.90
2019-01-04T21:37:56.556Z,3.90
2019-01-04T21:43:00.385Z,3.90
2019-01-04T21:47:58.832Z,4.10
2019-01-04T21:50:23.694Z,4.10
2019-01-04T21:53:06.101Z,4.10
2019-01-04T21:55:36.789Z,4.00
2019-01-04T21:58:01.849Z,4.00
2019-01-04T22:03:11.816Z,4.00
2019-01-04T22:05:42.224Z,4.10
2019-01-04T22:10:33.185Z,4.00
2019-01-04T22:13:03.998Z,4.00
2019-01-04T22:15:47.813Z,4.10
2019-01-04T22:18:12.593Z,4.10
2019-01-04T22:20:56.514Z,4.10
2019-01-04T22:23:40.108Z,4.10
2019-01-04T22:26:05.063Z,4.10
2019-01-04T22:28:29.564Z,4.10
2019-01-04T22:30:56.063Z,4.10
2019-01-04T22:33:20.683Z,4.10
2019-01-04T22:35:48.089Z,4.10
2019-01-04T22:38:15.365Z,4.20
2019-01-04T22:40:40.183Z,4.10
2019-01-04T22:43:23.769Z,4.10
2019-01-04T22:45:49.913Z,4.10
2019-01-04T22:48:19.340Z,4.20
2019-01-04T22:50:44.972Z,4.20
2019-01-04T22:53:10.876Z,4.20
2019-01-04T22:55:35.691Z,4.20
2019-01-04T22:58:00.750Z,4.20
2019-01-04T23:00:52.213Z,4.20
2019-01-04T23:03:17.817Z,4.20
2019-01-04T23:05:42.475Z,4.20
2019-01-04T23:08:13.432Z,4.20
2019-01-04T23:10:39.008Z,4.30
2019-01-04T23:13:17.805Z,4.30
2019-01-04T23:18:12.847Z,4.30
2019-01-04T23:20:40.290Z,4.30
2019-01-04T23:23:05.975Z,4.30
2019-01-04T23:25:29.181Z,4.30
2019-01-04T23:28:13.097Z,4.40
2019-01-04T23:30:37.561Z,4.30
2019-01-04T23:32:58.480Z,4.40
2019-01-04T23:35:26.185Z,4.40
2019-01-04T23:37:52.769Z,4.40
2019-01-04T23:40:19.538Z,4.30
2019-01-04T23:42:59.319Z,4.40
2019-01-04T23:45:24.977Z,4.30
2019-01-04T23:47:49.459Z,4.40
2019-01-04T23:50:25.931Z,4.30
2019-01-04T23:53:09.501Z,4.40
2019-01-04T23:58:14.115Z,4.40
